createdAt,value
2024-05-09T00:04:11.603Z,9.77
2024-05-09T00:09:14.849Z,7.40
2024-05-09T00:14:18.194Z,5.60
2024-05-09T00:19:21.835Z,8.50
2024-05-09T00:24:25.132Z,8.43
2024-05-09T00:29:28.568Z,7.97
2024-05-09T00:34:31.961Z,6.43
2024-05-09T00:39:36.410Z,6.68
2024-05-09T00:44:39.626Z,7.50
2024-05-09T00:49:42.986Z,7.80
2024-05-09T00:54:46.377Z,5.95
2024-05-09T00:59:50.033Z,7.50
2024-05-09T01:04:53.795Z,6.57
2024-05-09T01:09:57.057Z,8.50
2024-05-09T01:15:00.150Z,9.05
2024-05-09T01:20:05.944Z,7.63
2024-05-09T01:25:09.673Z,6.45
2024-05-09T01:30:17.434Z,9.60
2024-05-09T01:35:24.431Z,8.40
2024-05-09T01:40:36.390Z,7.38
2024-05-09T01:45:42.823Z,7.38
2024-05-09T01:50:45.959Z,7.78
2024-05-09T01:55:49.213Z,7.32
2024-05-09T02:00:52.442Z,8.40
2024-05-09T02:05:55.714Z,6.80
2024-05-09T02:10:59.000Z,8.07
2024-05-09T02:16:02.216Z,9.32
2024-05-09T02:21:05.546Z,11.23
2024-05-09T02:26:08.788Z,12.90
2024-05-09T02:31:15.186Z,7.15
2024-05-09T02:36:18.684Z,7.07
2024-05-09T02:41:22.097Z,9.15
2024-05-09T02:46:30.039Z,7.25
2024-05-09T02:51:35.750Z,7.70
2024-05-09T02:56:39.275Z,6.72
2024-05-09T03:01:42.934Z,8.95
2024-05-09T03:06:46.429Z,10.07
2024-05-09T03:11:49.759Z,7.20
2024-05-09T03:16:53.059Z,9.03
2024-05-09T03:21:56.192Z,7.65
2024-05-09T03:26:59.336Z,9.90
2024-05-09T03:32:02.866Z,9.93
2024-05-09T03:37:06.170Z,7.13
2024-05-09T03:42:09.416Z,8.63
2024-05-09T03:47:12.829Z,8.00
2024-05-09T03:52:16.149Z,8.82
2024-05-09T03:57:19.214Z,7.03
2024-05-09T04:02:22.344Z,12.18
2024-05-09T04:07:25.785Z,8.80
2024-05-09T04:12:29.049Z,8.57
2024-05-09T04:17:32.538Z,11.75
2024-05-09T04:22:35.866Z,10.50
2024-05-09T04:27:38.940Z,9.18
2024-05-09T04:32:42.220Z,10.60
2024-05-09T04:37:45.770Z,11.93
2024-05-09T04:42:49.349Z,7.90
2024-05-09T04:47:52.547Z,12.05
2024-05-09T04:52:55.773Z,10.68
2024-05-09T04:57:58.900Z,9.23
2024-05-09T05:03:06.074Z,9.82
2024-05-09T05:08:18.057Z,14.07
2024-05-09T05:13:24.161Z,9.98
2024-05-09T05:18:28.799Z,11.48
2024-05-09T05:23:32.259Z,9.07
2024-05-09T05:28:35.572Z,9.52
2024-05-09T05:33:39.440Z,9.45
2024-05-09T05:38:42.767Z,9.43
2024-05-09T05:43:46.161Z,9.52
2024-05-09T05:48:49.613Z,9.17
2024-05-09T05:53:53.282Z,8.95
2024-05-09T05:58:56.511Z,8.38
2024-05-09T06:03:59.990Z,12.90
2024-05-09T06:09:03.628Z,11.10
2024-05-09T06:14:07.050Z,9.67
2024-05-09T06:19:10.699Z,9.77
2024-05-09T06:24:14.019Z,9.75
2024-05-09T06:29:17.289Z,10.68
2024-05-09T06:34:20.886Z,7.22
2024-05-09T06:39:25.014Z,7.60
2024-05-09T06:44:28.337Z,8.52
2024-05-09T06:49:32.054Z,23.08
2024-05-09T06:54:35.356Z,25.27
2024-05-09T06:59:38.717Z,15.55
2024-05-09T07:04:41.997Z,9.60
2024-05-09T07:09:45.392Z,10.68
2024-05-09T07:14:48.738Z,8.50
2024-05-09T07:19:52.658Z,9.30
2024-05-09T07:24:56.159Z,9.15
2024-05-09T07:29:59.470Z,14.10
2024-05-09T07:35:02.778Z,18.08
2024-05-09T07:40:07.684Z,8.23
2024-05-09T07:45:29.675Z,18.00
2024-05-09T07:55:45.093Z,9.07
2024-05-09T08:00:48.694Z,10.02
2024-05-09T08:05:52.225Z,6.22
2024-05-09T08:10:55.639Z,7.18
2024-05-09T08:15:59.016Z,8.98
2024-05-09T08:21:02.362Z,10.17
2024-05-09T08:26:06.254Z,10.18
2024-05-09T08:31:10.706Z,6.90
2024-05-09T08:36:14.571Z,7.57
2024-05-09T08:41:17.717Z,6.75
2024-05-09T08:46:21.147Z,6.10
2024-05-09T08:51:24.521Z,8.63
2024-05-09T08:56:31.065Z,6.43
2024-05-09T09:01:38.042Z,5.30
2024-05-09T09:06:42.363Z,5.72
2024-05-09T09:11:45.681Z,5.40
2024-05-09T09:16:48.919Z,7.65
2024-05-09T09:21:52.098Z,7.68
2024-05-09T09:26:58.907Z,6.55
2024-05-09T09:32:04.294Z,6.88
2024-05-09T09:37:11.861Z,5.47
2024-05-09T09:42:18.978Z,7.78
2024-05-09T09:47:22.564Z,8.35
2024-05-09T09:52:27.642Z,5.80
2024-05-09T09:57:34.015Z,6.03
2024-05-09T10:02:38.006Z,8.57
2024-05-09T10:07:44.019Z,5.63
2024-05-09T10:13:00.861Z,5.20
2024-05-09T10:18:07.871Z,5.45
2024-05-09T10:23:31.312Z,6.68
2024-05-09T10:28:37.207Z,6.77
2024-05-09T10:33:46.034Z,5.88
2024-05-09T10:38:54.658Z,5.55
2024-05-09T10:43:57.745Z,5.68
2024-05-09T10:49:04.218Z,7.93
2024-05-09T10:54:09.362Z,9.00
2024-05-09T10:59:13.782Z,5.50
2024-05-09T11:04:17.593Z,5.20
2024-05-09T11:09:20.949Z,7.47
2024-05-09T11:14:24.102Z,5.32
2024-05-09T11:19:31.689Z,4.90
2024-05-09T11:24:38.089Z,6.47
2024-05-09T11:29:45.111Z,7.53
2024-05-09T11:34:48.224Z,7.30
2024-05-09T11:39:51.368Z,4.85
2024-05-09T11:44:54.538Z,6.07
2024-05-09T11:49:58.279Z,5.90
2024-05-09T11:55:03.054Z,7.30
2024-05-09T12:00:09.666Z,6.07
2024-05-09T12:05:15.378Z,8.30
2024-05-09T12:10:25.995Z,5.10
2024-05-09T12:15:37.464Z,6.93
2024-05-09T12:20:41.675Z,8.65
2024-05-09T12:25:45.100Z,5.05
2024-05-09T12:30:50.399Z,7.10
2024-05-09T12:35:53.857Z,5.23
2024-05-09T12:40:57.218Z,5.13
2024-05-09T12:46:00.607Z,7.28
2024-05-09T12:51:03.880Z,5.93
2024-05-09T12:56:09.491Z,7.40
2024-05-09T13:01:13.243Z,6.00
2024-05-09T13:06:16.686Z,4.90
2024-05-09T13:11:20.066Z,6.15
2024-05-09T13:16:23.576Z,5.03
2024-05-09T13:21:27.459Z,7.75
2024-05-09T13:26:30.614Z,8.40
2024-05-09T13:31:34.059Z,6.07
2024-05-09T13:36:37.460Z,6.45
2024-05-09T13:41:40.718Z,5.70
2024-05-09T13:46:44.076Z,6.20
2024-05-09T13:51:47.559Z,6.50
2024-05-09T13:56:52.510Z,5.85
2024-05-09T14:01:55.911Z,5.88
2024-05-09T14:06:59.316Z,6.15
2024-05-09T14:12:02.561Z,4.80
2024-05-09T14:17:06.047Z,5.80
2024-05-09T14:22:09.485Z,6.07
2024-05-09T14:27:13.066Z,5.50
2024-05-09T14:32:16.661Z,6.55
2024-05-09T14:37:19.927Z,4.50
2024-05-09T14:42:23.518Z,7.47
2024-05-09T14:47:26.814Z,6.50
2024-05-09T14:52:30.163Z,7.93
2024-05-09T14:57:33.487Z,6.93
2024-05-09T15:02:38.334Z,6.13
2024-05-09T15:07:45.594Z,6.07
2024-05-09T15:12:48.948Z,4.30
2024-05-09T15:17:52.721Z,6.47
2024-05-09T15:22:55.962Z,6.05
2024-05-09T15:28:00.010Z,5.75
2024-05-09T15:33:04.414Z,5.83
2024-05-09T15:38:09.577Z,4.32
2024-05-09T15:43:13.185Z,5.40
2024-05-09T15:48:16.719Z,5.28
2024-05-09T15:53:19.996Z,5.50
2024-05-09T15:58:23.448Z,6.20
2024-05-09T16:03:26.806Z,4.45
2024-05-09T16:08:30.170Z,4.43
2024-05-09T16:13:33.521Z,5.05
2024-05-09T16:18:37.158Z,5.72
2024-05-09T16:23:40.938Z,8.03
2024-05-09T16:28:44.174Z,5.25
2024-05-09T16:33:47.968Z,4.63
2024-05-09T16:38:51.453Z,6.45
2024-05-09T16:43:55.611Z,4.93
2024-05-09T16:48:59.308Z,5.20
2024-05-09T16:54:02.564Z,5.95
2024-05-09T16:59:06.423Z,4.70
2024-05-09T17:04:09.953Z,6.18
2024-05-09T17:09:15.659Z,4.43
2024-05-09T17:14:21.747Z,7.77
2024-05-09T17:19:25.187Z,4.43
2024-05-09T17:24:28.603Z,4.57
2024-05-09T17:29:32.113Z,8.30
2024-05-09T17:34:36.335Z,7.15
2024-05-09T17:39:40.262Z,5.63
2024-05-09T17:44:45.355Z,5.97
2024-05-09T17:49:48.878Z,5.53
2024-05-09T17:54:52.301Z,5.93
2024-05-09T17:59:56.465Z,10.68
2024-05-09T18:05:02.042Z,5.53
2024-05-09T18:10:10.169Z,8.02
2024-05-09T18:15:19.293Z,5.00
2024-05-09T18:20:32.740Z,5.10
2024-05-09T18:25:44.635Z,5.78
2024-05-09T18:30:48.110Z,6.57
2024-05-09T18:35:51.519Z,7.90
2024-05-09T18:40:55.090Z,7.90
2024-05-09T18:45:59.422Z,7.45
2024-05-09T18:51:02.918Z,10.48
2024-05-09T18:56:07.435Z,10.77
2024-05-09T19:01:11.870Z,10.52
2024-05-09T19:06:15.270Z,10.50
2024-05-09T19:11:18.661Z,9.20
2024-05-09T19:16:21.975Z,9.65
2024-05-09T19:21:25.188Z,9.77
2024-05-09T19:26:28.594Z,7.78
2024-05-09T19:31:32.083Z,10.17
2024-05-09T19:36:36.238Z,8.50
2024-05-09T19:41:39.551Z,7.90
2024-05-09T19:46:42.771Z,8.60
2024-05-09T19:51:46.067Z,10.48
2024-05-09T19:56:49.354Z,11.50
2024-05-09T20:01:52.781Z,10.70
2024-05-09T20:06:56.067Z,9.75
2024-05-09T20:11:59.391Z,12.63
2024-05-09T20:17:02.711Z,10.13
2024-05-09T20:22:06.064Z,9.87
2024-05-09T20:27:09.319Z,9.00
2024-05-09T20:32:12.831Z,14.73
2024-05-09T20:37:16.137Z,10.73
2024-05-09T20:42:19.586Z,11.77
2024-05-09T20:47:22.931Z,8.03
2024-05-09T20:52:26.531Z,11.13
2024-05-09T20:57:29.844Z,11.35
2024-05-09T21:02:33.152Z,9.77
2024-05-09T21:07:36.609Z,9.02
2024-05-09T21:12:39.814Z,8.73
2024-05-09T21:17:43.146Z,10.00
2024-05-09T21:22:46.390Z,14.50
2024-05-09T21:27:49.658Z,10.27
2024-05-09T21:32:52.907Z,11.98
2024-05-09T21:37:56.153Z,10.30
2024-05-09T21:42:59.255Z,12.85
2024-05-09T21:48:06.662Z,10.88
2024-05-09T21:53:12.856Z,8.70
2024-05-09T21:58:16.864Z,12.68
2024-05-09T22:03:20.150Z,11.37
2024-05-09T22:08:23.382Z,11.27
2024-05-09T22:13:26.783Z,11.15
2024-05-09T22:18:30.226Z,10.40
2024-05-09T22:23:33.427Z,10.68
2024-05-09T22:28:36.580Z,11.00
2024-05-09T22:33:40.964Z,11.57
2024-05-09T22:38:45.153Z,10.48
2024-05-09T22:43:48.277Z,10.63
2024-05-09T22:48:51.535Z,10.50
2024-05-09T22:53:54.757Z,11.80
2024-05-09T22:58:58.764Z,13.52
2024-05-09T23:04:03.784Z,8.98
2024-05-09T23:09:09.803Z,11.53
2024-05-09T23:14:13.181Z,11.65
2024-05-09T23:19:16.342Z,10.90
2024-05-09T23:24:19.511Z,10.35
2024-05-09T23:29:22.686Z,9.48
2024-05-09T23:34:25.853Z,12.60
2024-05-09T23:39:29.017Z,12.55
2024-05-09T23:44:32.298Z,14.60
2024-05-09T23:49:35.637Z,9.52
2024-05-09T23:54:38.890Z,9.30
2024-05-09T23:59:42.205Z,8.83
